Time;durP1;ratioP1;P1;durP2;ratioP2;P2;SDS_P1;SDS_P2;PMS_P1;PMS_P2;Temp;Humidity;BMP_temperature;BMP_pressure;BME280_temperature;BME280_humidity;BME280_pressure;Samples;Min_cycle;Max_cycle;Signal;HPM_P1;HPM_P2
2022/03/08 00:00:41;;;;;;;;;;;;;;;17.51;39.42;100836.09;5075329;28;938;-57
2022/03/08 00:03:06;;;;;;;;;;;;;;;16.92;40.60;100838.34;5075192;28;875;-57
2022/03/08 00:05:32;;;;;;;;;;;;;;;16.74;40.83;100831.44;5075293;28;826;-56
2022/03/08 00:07:57;;;;;;;;;;;;;;;16.56;41.47;100836.38;5075520;28;868;-57
2022/03/08 00:10:22;;;;;;;;;;;;;;;16.64;41.42;100843.22;5075081;28;829;-57
2022/03/08 00:12:48;;;;;;;;;;;;;;;16.85;40.88;100841.34;5075191;28;1910;-57
2022/03/08 00:15:16;;;;;;;;;;;;;;;17.51;39.62;100831.41;5078369;28;918;-56
2022/03/08 00:17:41;;;;;;;;;;;;;;;17.84;38.88;100831.03;5079326;28;769;-57
2022/03/08 00:20:08;;;;;;;;;;;;;;;17.77;38.76;100837.66;5078962;28;728;-56
2022/03/08 00:22:36;;;;;;;;;;;;;;;17.21;39.78;100841.38;5078900;28;782;-56
2022/03/08 00:25:03;;;;;;;;;;;;;;;17.04;40.44;100838.91;5078756;28;856;-56
2022/03/08 00:27:28;;;;;;;;;;;;;;;16.79;40.92;100841.59;5079060;28;832;-56
2022/03/08 00:29:54;;;;;;;;;;;;;;;16.52;41.41;100834.44;5078478;28;848;-57
2022/03/08 00:32:20;;;;;;;;;;;;;;;16.62;41.45;100834.47;5078219;28;1972;-56
2022/03/08 00:34:45;;;;;;;;;;;;;;;17.20;40.43;100827.91;5078848;28;872;-56
2022/03/08 00:37:10;;;;;;;;;;;;;;;18.18;38.22;100835.91;5111485;28;1077;-56
2022/03/08 00:39:36;;;;;;;;;;;;;;;17.49;39.43;100825.38;5110280;28;792;-56
2022/03/08 00:42:01;;;;;;;;;;;;;;;17.00;40.50;100834.22;5076704;28;781;-56
2022/03/08 00:44:27;;;;;;;;;;;;;;;16.68;41.03;100838.84;5078671;28;904;-57
2022/03/08 00:46:52;;;;;;;;;;;;;;;16.66;40.98;100832.81;5078044;28;954;-57
2022/03/08 00:49:18;;;;;;;;;;;;;;;16.65;41.44;100822.94;5078566;28;863;-57
2022/03/08 00:51:43;;;;;;;;;;;;;;;16.97;40.65;100823.78;5078246;28;1906;-57
2022/03/08 00:54:09;;;;;;;;;;;;;;;17.51;39.35;100819.59;5077645;28;840;-57
2022/03/08 00:56:35;;;;;;;;;;;;;;;17.67;39.15;100810.22;5078830;28;750;-57
2022/03/08 00:59:00;;;;;;;;;;;;;;;17.45;39.35;100807.78;5078145;28;747;-57
2022/03/08 01:01:26;;;;;;;;;;;;;;;17.03;40.39;100807.03;5077959;28;821;-57
2022/03/08 01:03:51;;;;;;;;;;;;;;;16.74;40.73;100813.03;5078236;28;806;-57
2022/03/08 01:06:17;;;;;;;;;;;;;;;16.54;41.33;100810.28;5077677;28;788;-57
2022/03/08 01:08:42;;;;;;;;;;;;;;;16.80;41.04;100818.53;5077831;28;803;-57
2022/03/08 01:11:07;;;;;;;;;;;;;;;16.92;40.78;100810.88;5110125;28;2089;-56
2022/03/08 01:13:33;;;;;;;;;;;;;;;17.34;40.03;100801.50;5077989;28;1918;-56
2022/03/08 01:15:59;;;;;;;;;;;;;;;17.43;39.47;100804.47;5077574;28;1055;-57
2022/03/08 01:18:24;;;;;;;;;;;;;;;16.89;40.64;100806.75;5078004;28;782;-56
2022/03/08 01:20:51;;;;;;;;;;;;;;;16.69;40.99;100807.56;5076887;28;990;-56
2022/03/08 01:23:17;;;;;;;;;;;;;;;16.42;41.68;100802.28;5078167;28;782;-56
2022/03/08 01:25:44;;;;;;;;;;;;;;;16.51;41.55;100799.81;5077224;28;883;-56
2022/03/08 01:28:10;;;;;;;;;;;;;;;16.80;41.21;100791.88;5077717;28;886;-56
2022/03/08 01:30:35;;;;;;;;;;;;;;;17.27;40.27;100795.47;5077499;28;938;-57
2022/03/08 01:33:01;;;;;;;;;;;;;;;17.58;39.14;100795.38;5077144;28;1989;-56
2022/03/08 01:35:26;;;;;;;;;;;;;;;17.66;39.15;100792.06;5076052;28;780;-56
2022/03/08 01:37:52;;;;;;;;;;;;;;;17.03;39.96;100776.81;5077515;28;980;-56
2022/03/08 01:40:18;;;;;;;;;;;;;;;16.81;40.91;100795.47;5077819;28;828;-57
2022/03/08 01:42:46;;;;;;;;;;;;;;;16.76;41.00;100802.63;5109880;28;1218;-57
2022/03/08 01:45:12;;;;;;;;;;;;;;;16.63;41.15;100797.66;5076860;28;884;-57
2022/03/08 01:47:37;;;;;;;;;;;;;;;16.57;41.37;100794.06;5077095;28;786;-56
2022/03/08 01:50:04;;;;;;;;;;;;;;;16.87;41.03;100802.59;5077406;28;762;-56
2022/03/08 01:52:29;;;;;;;;;;;;;;;17.52;39.74;100802.00;5075596;28;1957;-57
2022/03/08 01:54:54;;;;;;;;;;;;;;;17.83;38.68;100793.66;5077139;28;830;-56
2022/03/08 01:57:23;;;;;;;;;;;;;;;17.43;39.26;100793.50;5076669;28;865;-56
2022/03/08 01:59:49;;;;;;;;;;;;;;;16.83;40.76;100787.78;5077323;28;794;-56
2022/03/08 02:02:14;;;;;;;;;;;;;;;16.57;40.88;100790.53;5076633;28;839;-56
2022/03/08 02:04:40;;;;;;;;;;;;;;;16.28;41.85;100796.50;5077113;28;728;-56
2022/03/08 02:07:05;;;;;;;;;;;;;;;16.53;41.70;100808.63;5077126;28;1004;-56
2022/03/08 02:09:31;;;;;;;;;;;;;;;16.73;41.09;100805.91;5109407;28;848;-56
2022/03/08 02:11:56;;;;;;;;;;;;;;;17.10;39.98;100796.56;5077000;28;1969;-56
2022/03/08 02:14:21;;;;;;;;;;;;;;;17.35;39.64;100792.16;5077147;28;765;-56
2022/03/08 02:16:47;;;;;;;;;;;;;;;17.28;39.64;100786.94;5076038;28;1151;-56
2022/03/08 02:19:13;;;;;;;;;;;;;;;17.03;40.25;100796.03;5077023;28;742;-56
2022/03/08 02:21:38;;;;;;;;;;;;;;;16.66;41.13;100807.25;5076612;28;924;-57
2022/03/08 02:24:04;;;;;;;;;;;;;;;16.54;41.15;100804.81;5076290;28;865;-56
2022/03/08 02:26:31;;;;;;;;;;;;;;;16.54;41.30;100815.78;5076906;28;916;-56
2022/03/08 02:28:57;;;;;;;;;;;;;;;16.71;41.09;100813.59;5076498;28;876;-56
2022/03/08 02:31:22;;;;;;;;;;;;;;;16.90;40.62;100810.31;5076378;28;757;-56
2022/03/08 02:33:48;;;;;;;;;;;;;;;17.31;39.64;100810.28;5076168;28;1913;-57
2022/03/08 02:36:13;;;;;;;;;;;;;;;17.41;39.36;100810.25;5076038;28;858;-56
2022/03/08 02:38:39;;;;;;;;;;;;;;;17.38;39.57;100810.84;5076336;28;860;-56
2022/03/08 02:41:04;;;;;;;;;;;;;;;16.93;40.34;100810.59;5076309;28;845;-56
2022/03/08 02:43:30;;;;;;;;;;;;;;;16.87;40.39;100819.09;5076422;28;912;-56
2022/03/08 02:45:55;;;;;;;;;;;;;;;16.66;41.12;100823.75;5075663;28;972;-56
2022/03/08 02:48:22;;;;;;;;;;;;;;;16.43;41.31;100815.75;5076140;28;842;-56
2022/03/08 02:50:47;;;;;;;;;;;;;;;16.47;41.59;100826.19;5074638;28;1379;-56
2022/03/08 02:53:13;;;;;;;;;;;;;;;16.46;41.55;100821.81;5076006;28;1913;-56
2022/03/08 02:55:38;;;;;;;;;;;;;;;16.74;41.03;100835.00;5076817;28;817;-56
2022/03/08 02:58:04;;;;;;;;;;;;;;;17.16;39.89;100826.81;5076311;28;777;-56
2022/03/08 03:00:30;;;;;;;;;;;;;;;17.31;39.55;100835.03;5075311;28;862;-56
2022/03/08 03:02:56;;;;;;;;;;;;;;;17.42;39.55;100836.66;5076463;28;930;-56
2022/03/08 03:05:21;;;;;;;;;;;;;;;17.09;39.91;100836.13;5076313;28;798;-56
2022/03/08 03:07:47;;;;;;;;;;;;;;;16.90;40.67;100843.28;5076212;28;913;-56
2022/03/08 03:10:13;;;;;;;;;;;;;;;16.67;40.92;100842.69;5076256;28;750;-56
2022/03/08 03:12:38;;;;;;;;;;;;;;;16.55;41.02;100839.38;5076224;28;1981;-56
2022/03/08 03:15:04;;;;;;;;;;;;;;;16.64;41.31;100829.50;5075435;28;1009;-56
2022/03/08 03:17:30;;;;;;;;;;;;;;;16.69;40.83;100835.00;5075901;28;750;-55
2022/03/08 03:19:55;;;;;;;;;;;;;;;17.20;40.13;100833.41;5076076;28;837;-56
2022/03/08 03:22:21;;;;;;;;;;;;;;;17.53;39.10;100836.63;5075739;28;865;-57
2022/03/08 03:24:46;;;;;;;;;;;;;;;17.58;39.09;100829.19;5108018;28;809;-56
2022/03/08 03:27:11;;;;;;;;;;;;;;;17.31;39.59;100829.53;5075686;28;893;-57
2022/03/08 03:29:37;;;;;;;;;;;;;;;16.85;40.64;100840.53;5076084;28;742;-56
2022/03/08 03:32:02;;;;;;;;;;;;;;;16.66;40.98;100835.56;5075472;28;1909;-57
2022/03/08 03:34:28;;;;;;;;;;;;;;;16.54;41.28;100837.75;5075985;28;769;-56
2022/03/08 03:36:53;;;;;;;;;;;;;;;16.58;41.07;100836.09;5075952;28;818;-56
2022/03/08 03:39:19;;;;;;;;;;;;;;;16.72;40.78;100830.91;5075554;28;841;-57
2022/03/08 03:41:44;;;;;;;;;;;;;;;16.76;40.68;100837.50;5076353;28;839;-57
2022/03/08 03:44:10;;;;;;;;;;;;;;;16.86;40.64;100840.25;5075484;28;831;-56
2022/03/08 03:46:36;;;;;;;;;;;;;;;17.07;40.14;100840.28;5075378;28;958;-56
2022/03/08 03:49:01;;;;;;;;;;;;;;;17.15;39.86;100841.63;5077723;28;888;-56
2022/03/08 03:51:28;;;;;;;;;;;;;;;16.97;40.26;100848.50;5079293;28;793;-56
2022/03/08 03:53:54;;;;;;;;;;;;;;;16.75;40.58;100853.13;5079271;28;1989;-56
2022/03/08 03:56:19;;;;;;;;;;;;;;;16.56;41.20;100852.00;5079686;28;903;-56
2022/03/08 03:58:44;;;;;;;;;;;;;;;16.64;41.18;100847.91;5111585;28;844;-56
2022/03/08 04:01:10;;;;;;;;;;;;;;;16.89;40.60;100849.88;5078772;28;918;-57
2022/03/08 04:03:35;;;;;;;;;;;;;;;17.33;39.70;100849.31;5079052;28;938;-57
2022/03/08 04:06:01;;;;;;;;;;;;;;;17.56;38.84;100850.66;5078843;28;821;-56
2022/03/08 04:08:26;;;;;;;;;;;;;;;17.67;39.02;100851.47;5079627;28;803;-56
2022/03/08 04:10:52;;;;;;;;;;;;;;;17.46;39.40;100853.44;5079389;28;881;-57
2022/03/08 04:13:17;;;;;;;;;;;;;;;17.05;39.92;100867.19;5078857;28;1914;-57
2022/03/08 04:15:43;;;;;;;;;;;;;;;16.78;40.56;100865.50;5078421;28;1370;-55
2022/03/08 04:18:08;;;;;;;;;;;;;;;16.74;40.80;100872.63;5078944;28;868;-56
2022/03/08 04:20:34;;;;;;;;;;;;;;;16.77;40.74;100875.66;5079133;28;786;-57
2022/03/08 04:22:59;;;;;;;;;;;;;;;17.14;40.11;100859.22;5078972;28;786;-57
2022/03/08 04:25:25;;;;;;;;;;;;;;;17.45;39.17;100860.03;5079050;28;792;-57
2022/03/08 04:27:50;;;;;;;;;;;;;;;17.52;39.02;100868.00;5078608;28;856;-55
2022/03/08 04:30:16;;;;;;;;;;;;;;;17.35;39.41;100880.09;5078688;28;913;-55
2022/03/08 04:32:41;;;;;;;;;;;;;;;16.91;40.10;100872.41;5078938;28;1910;-56
2022/03/08 04:35:07;;;;;;;;;;;;;;;16.90;40.57;100878.97;5078760;28;746;-55
2022/03/08 04:37:33;;;;;;;;;;;;;;;16.80;40.74;100884.44;5078841;28;749;-55
2022/03/08 04:39:59;;;;;;;;;;;;;;;16.62;40.91;100894.84;5111556;28;1116;-57
2022/03/08 04:42:24;;;;;;;;;;;;;;;16.58;41.18;100894.56;5078410;28;873;-56
2022/03/08 04:44:50;;;;;;;;;;;;;;;16.84;40.69;100900.09;5078221;28;1272;-57
2022/03/08 04:47:15;;;;;;;;;;;;;;;17.09;39.96;100893.84;5076827;28;1468;-55
2022/03/08 04:49:41;;;;;;;;;;;;;;;17.54;39.20;100890.53;5078249;28;892;-52
2022/03/08 04:52:06;;;;;;;;;;;;;;;17.56;38.95;100880.91;5078644;28;1973;-54
2022/03/08 04:54:32;;;;;;;;;;;;;;;17.41;39.24;100876.25;5078215;28;831;-56
2022/03/08 04:56:57;;;;;;;;;;;;;;;17.00;40.24;100879.00;5071799;28;1202;-55
2022/03/08 04:59:23;;;;;;;;;;;;;;;16.76;40.73;100873.19;5111020;28;1112;-55
2022/03/08 05:01:49;;;;;;;;;;;;;;;16.59;40.61;100868.78;5078475;28;856;-56
2022/03/08 05:04:15;;;;;;;;;;;;;;;16.47;40.96;100876.41;5078532;28;838;-56
2022/03/08 05:06:41;;;;;;;;;;;;;;;16.39;41.26;100858.53;5077864;28;766;-55
2022/03/08 05:09:06;;;;;;;;;;;;;;;16.61;41.07;100863.00;5077078;28;942;-55
2022/03/08 05:11:32;;;;;;;;;;;;;;;16.96;39.88;100861.44;5077873;28;814;-55
2022/03/08 05:13:57;;;;;;;;;;;;;;;17.34;39.18;100856.47;5078284;28;1979;-57
2022/03/08 05:16:22;;;;;;;;;;;;;;;17.53;38.76;100855.88;5077180;28;987;-56
2022/03/08 05:18:48;;;;;;;;;;;;;;;17.48;38.98;100853.97;5078380;28;734;-56
2022/03/08 05:21:13;;;;;;;;;;;;;;;17.02;39.59;100848.53;5077421;28;865;-56
2022/03/08 05:23:39;;;;;;;;;;;;;;;16.84;40.16;100847.91;5077570;28;869;-56
2022/03/08 05:26:04;;;;;;;;;;;;;;;16.74;40.35;100856.97;5077791;28;882;-56
2022/03/08 05:28:30;;;;;;;;;;;;;;;16.79;40.43;100855.31;5077466;28;818;-57
2022/03/08 05:30:56;;;;;;;;;;;;;;;17.17;39.50;100851.25;5076974;28;821;-56
2022/03/08 05:33:21;;;;;;;;;;;;;;;17.49;38.92;100841.03;5077795;28;1910;-57
2022/03/08 05:35:47;;;;;;;;;;;;;;;17.68;38.21;100847.59;5077283;28;834;-56
2022/03/08 05:38:12;;;;;;;;;;;;;;;17.69;38.13;100849.25;5077676;28;765;-56
2022/03/08 05:40:38;;;;;;;;;;;;;;;17.43;38.54;100851.22;5077653;28;801;-57
2022/03/08 05:43:03;;;;;;;;;;;;;;;17.03;39.47;100853.72;5077075;28;830;-57
2022/03/08 05:45:29;;;;;;;;;;;;;;;16.64;40.26;100856.97;5077225;28;806;-57
2022/03/08 05:47:54;;;;;;;;;;;;;;;16.51;40.57;100835.50;5077128;28;811;-56
2022/03/08 05:50:20;;;;;;;;;;;;;;;16.53;40.59;100849.81;5076848;28;816;-55
2022/03/08 05:52:45;;;;;;;;;;;;;;;16.66;40.24;100840.22;5077415;28;1906;-58
2022/03/08 05:55:11;;;;;;;;;;;;;;;16.71;40.23;100838.28;5077367;28;753;-58
2022/03/08 05:57:36;;;;;;;;;;;;;;;16.84;39.98;100847.09;5076935;28;797;-58
2022/03/08 06:00:03;;;;;;;;;;;;;;;17.13;39.37;100857.59;5077017;28;917;-57
2022/03/08 06:02:36;;;;;;;;;;;;;;;17.63;38.13;100853.13;5076769;28;863;-57
2022/03/08 06:05:02;;;;;;;;;;;;;;;17.73;37.90;100853.09;5076737;28;786;-62
2022/03/08 06:07:28;;;;;;;;;;;;;;;17.45;38.27;100858.09;5076643;28;956;-57
2022/03/08 06:09:53;;;;;;;;;;;;;;;17.14;39.27;100868.31;5076978;28;812;-57
2022/03/08 06:12:19;;;;;;;;;;;;;;;16.84;39.82;100872.63;5075935;28;1970;-59
2022/03/08 06:14:44;;;;;;;;;;;;;;;16.68;40.29;100880.03;5077052;28;746;-57
2022/03/08 06:17:10;;;;;;;;;;;;;;;16.76;39.89;100874.00;5076502;28;1013;-58
2022/03/08 06:19:35;;;;;;;;;;;;;;;17.21;38.91;100888.09;5076235;28;1115;-57
2022/03/08 06:22:01;;;;;;;;;;;;;;;17.50;38.42;100879.28;5076022;28;1256;-56
2022/03/08 06:24:26;;;;;;;;;;;;;;;17.70;37.93;100880.34;5076003;28;1241;-55
2022/03/08 06:26:52;;;;;;;;;;;;;;;17.70;38.19;100891.34;5075511;28;1091;-57
2022/03/08 06:29:17;;;;;;;;;;;;;;;17.52;38.27;100890.00;5075583;28;990;-56
2022/03/08 06:31:42;;;;;;;;;;;;;;;17.24;38.94;100892.22;5076634;28;958;-58
2022/03/08 06:34:08;;;;;;;;;;;;;;;17.01;39.32;100897.16;5075998;28;1984;-56
2022/03/08 06:36:34;;;;;;;;;;;;;;;16.86;39.85;100897.91;5074482;28;1731;-55
2022/03/08 06:39:00;;;;;;;;;;;;;;;16.80;40.03;100887.19;5071244;28;1443;-57
2022/03/08 06:41:26;;;;;;;;;;;;;;;17.60;38.32;100889.44;5073565;28;1355;-61
2022/03/08 06:43:51;;;;;;;;;;;;;;;18.03;37.46;100900.06;5075972;28;1363;-55
2022/03/08 06:46:17;;;;;;;;;;;;;;;18.23;36.73;100890.91;5078429;28;1395;-56
2022/03/08 06:48:42;;;;;;;;;;;;;;;17.89;37.23;100886.03;5072332;28;1265;-59
2022/03/08 06:51:08;;;;;;;;;;;;;;;17.39;38.50;100885.84;5078398;28;1375;-58
2022/03/08 06:53:34;;;;;;;;;;;;;;;17.08;39.08;100892.22;5078769;28;1909;-59
2022/03/08 06:56:00;;;;;;;;;;;;;;;16.82;39.81;100885.81;5079502;28;1403;-59
2022/03/08 06:58:26;;;;;;;;;;;;;;;17.02;39.10;100890.53;5077330;28;1306;-59
2022/03/08 07:00:52;;;;;;;;;;;;;;;16.94;39.34;100891.06;5075914;28;1419;-59
2022/03/08 07:03:17;;;;;;;;;;;;;;;16.88;39.59;100893.00;5075609;28;1067;-58
2022/03/08 07:05:43;;;;;;;;;;;;;;;16.93;39.36;100892.19;5080973;28;1307;-59
2022/03/08 07:08:09;;;;;;;;;;;;;;;17.37;38.55;100894.38;5082360;28;1236;-60
2022/03/08 07:10:34;;;;;;;;;;;;;;;17.69;37.94;100906.19;5074875;28;1111;-61
2022/03/08 07:13:00;;;;;;;;;;;;;;;17.60;38.19;100886.69;5078672;28;1905;-57
2022/03/08 07:15:25;;;;;;;;;;;;;;;17.21;38.72;100895.50;5071716;28;1527;-57
2022/03/08 07:17:51;;;;;;;;;;;;;;;16.96;39.41;100893.53;5053152;28;1408;-58
2022/03/08 07:20:17;;;;;;;;;;;;;;;17.03;39.23;100894.94;5059301;28;1002;-59
2022/03/08 07:22:44;;;;;;;;;;;;;;;17.03;39.28;100902.38;5053150;28;1524;-59
2022/03/08 07:25:09;;;;;;;;;;;;;;;17.07;39.21;100900.72;5055604;28;1210;-59
2022/03/08 07:27:35;;;;;;;;;;;;;;;17.22;39.06;100897.97;5058592;28;1224;-61
2022/03/08 07:30:02;;;;;;;;;;;;;;;17.24;39.10;100901.25;5059156;28;837;-61
2022/03/08 07:32:28;;;;;;;;;;;;;;;17.22;38.92;100905.38;5057182;28;1980;-59
2022/03/08 07:34:53;;;;;;;;;;;;;;;17.13;39.30;100904.31;5055576;28;1420;-59
2022/03/08 07:37:19;;;;;;;;;;;;;;;16.97;39.79;100895.19;5053613;28;1520;-58
2022/03/08 07:39:44;;;;;;;;;;;;;;;17.06;39.59;100901.81;5057923;28;1334;-58
2022/03/08 07:42:10;;;;;;;;;;;;;;;17.13;39.19;100896.06;5062631;28;1616;-57
2022/03/08 07:44:37;;;;;;;;;;;;;;;17.30;39.20;100893.84;5053486;28;1308;-58
2022/03/08 07:47:03;;;;;;;;;;;;;;;17.51;38.83;100888.34;5053461;28;1145;-57
2022/03/08 07:49:28;;;;;;;;;;;;;;;17.73;38.06;100886.09;5056251;28;1445;-57
2022/03/08 07:51:53;;;;;;;;;;;;;;;17.41;38.99;100894.66;5052562;28;1409;-57
2022/03/08 07:54:19;;;;;;;;;;;;;;;17.01;39.66;100886.16;5056631;28;1910;-57
2022/03/08 07:56:44;;;;;;;;;;;;;;;16.77;40.45;100894.03;5053435;28;1243;-59
2022/03/08 07:59:11;;;;;;;;;;;;;;;16.68;39.96;100898.44;5052381;28;1413;-59
2022/03/08 08:01:36;;;;;;;;;;;;;;;17.51;38.77;100894.66;5052528;28;1564;-59
2022/03/08 08:04:02;;;;;;;;;;;;;;;17.57;38.36;100898.22;5051128;28;1421;-58
2022/03/08 08:06:27;;;;;;;;;;;;;;;17.10;39.25;100892.75;5058546;28;1148;-58
2022/03/08 08:08:53;;;;;;;;;;;;;;;16.66;39.78;100900.63;5056873;28;1401;-59
2022/03/08 08:11:18;;;;;;;;;;;;;;;17.03;40.09;100889.44;5059164;28;1027;-57
2022/03/08 08:13:43;;;;;;;;;;;;;;;18.08;37.39;100886.28;5052340;28;1979;-59
2022/03/08 08:16:09;;;;;;;;;;;;;;;17.51;38.37;100893.84;5069931;28;1275;-59
2022/03/08 08:18:34;;;;;;;;;;;;;;;17.04;39.81;100891.09;5081281;28;1269;-57
2022/03/08 08:21:01;;;;;;;;;;;;;;;16.82;39.34;100887.75;5078785;28;1397;-58
2022/03/08 08:23:27;;;;;;;;;;;;;;;16.49;40.96;100887.94;5078272;28;1398;-57
2022/03/08 08:25:52;;;;;;;;;;;;;;;17.22;39.19;100883.41;5077598;28;1373;-57
2022/03/08 08:28:17;;;;;;;;;;;;;;;17.07;39.69;100887.81;5078332;28;1317;-57
2022/03/08 08:30:43;;;;;;;;;;;;;;;16.85;40.07;100888.03;5081003;28;1352;-56
2022/03/08 08:33:08;;;;;;;;;;;;;;;16.63;40.30;100880.00;5078298;28;1979;-57
2022/03/08 08:35:34;;;;;;;;;;;;;;;17.50;38.85;100890.28;5079315;28;1487;-57
2022/03/08 08:37:59;;;;;;;;;;;;;;;17.74;38.29;100881.41;5083324;28;1366;-57
2022/03/08 08:40:25;;;;;;;;;;;;;;;17.29;39.33;100881.19;5077797;28;1339;-57
2022/03/08 08:42:50;;;;;;;;;;;;;;;17.04;39.61;100880.13;5077786;28;1419;-57
2022/03/08 08:45:16;;;;;;;;;;;;;;;16.56;39.99;100884.94;5081597;28;1242;-57
2022/03/08 08:47:41;;;;;;;;;;;;;;;17.54;39.25;100882.28;5079388;28;1278;-58
2022/03/08 08:50:06;;;;;;;;;;;;;;;17.74;38.62;100874.00;5078403;28;1256;-57
2022/03/08 08:52:32;;;;;;;;;;;;;;;17.20;39.65;100871.88;5074846;28;1980;-57
2022/03/08 08:54:58;;;;;;;;;;;;;;;16.90;40.09;100873.50;5077807;28;1377;-56
2022/03/08 08:57:23;;;;;;;;;;;;;;;17.64;38.74;100870.44;5077024;28;1366;-60
2022/03/08 08:59:48;;;;;;;;;;;;;;;18.30;37.56;100875.72;5077620;28;1531;-57
2022/03/08 09:02:14;;;;;;;;;;;;;;;16.98;39.75;100883.94;5077559;28;1021;-57
2022/03/08 09:04:39;;;;;;;;;;;;;;;17.84;38.39;100875.88;5077887;28;1094;-58
2022/03/08 09:07:05;;;;;;;;;;;;;;;18.80;36.32;100870.22;5078039;28;1178;-59
2022/03/08 09:09:31;;;;;;;;;;;;;;;19.15;35.87;100868.31;5077818;28;792;-59
2022/03/08 09:11:57;;;;;;;;;;;;;;;19.34;35.28;100873.13;5077986;28;859;-59
2022/03/08 09:14:22;;;;;;;;;;;;;;;19.51;34.91;100872.66;5077764;28;1909;-59
2022/03/08 09:16:48;;;;;;;;;;;;;;;19.64;34.75;100868.41;5077106;28;1173;-59
2022/03/08 09:19:13;;;;;;;;;;;;;;;19.74;34.55;100864.69;5078062;28;825;-59
2022/03/08 09:21:38;;;;;;;;;;;;;;;19.85;34.51;100871.78;5077369;28;1095;-59
2022/03/08 09:24:04;;;;;;;;;;;;;;;19.93;34.35;100873.09;5077660;28;1249;-59
2022/03/08 09:26:30;;;;;;;;;;;;;;;20.03;34.17;100872.94;5077011;28;1028;-62
2022/03/08 09:28:55;;;;;;;;;;;;;;;20.10;34.08;100873.41;5076668;28;1005;-61
2022/03/08 09:31:21;;;;;;;;;;;;;;;20.13;33.78;100875.59;5077267;28;1092;-62
2022/03/08 09:33:46;;;;;;;;;;;;;;;20.23;33.83;100882.94;5077594;28;1981;-58
2022/03/08 09:36:11;;;;;;;;;;;;;;;20.32;33.43;100877.56;5082077;28;1368;-59
2022/03/08 09:38:38;;;;;;;;;;;;;;;20.15;33.72;100869.78;5078019;28;1265;-57
2022/03/08 09:41:04;;;;;;;;;;;;;;;20.17;33.72;100868.38;5076148;28;1353;-55
2022/03/08 09:43:29;;;;;;;;;;;;;;;20.70;32.85;100866.56;5076577;28;1147;-57
2022/03/08 09:45:55;;;;;;;;;;;;;;;19.52;35.02;100868.81;5076413;28;1514;-56
2022/03/08 09:48:21;;;;;;;;;;;;;;;19.69;35.09;100862.84;5077874;28;1165;-57
2022/03/08 09:50:46;;;;;;;;;;;;;;;20.05;34.38;100867.97;5076735;28;1229;-55
2022/03/08 09:53:12;;;;;;;;;;;;;;;19.82;34.76;100864.94;5074828;28;1975;-56
2022/03/08 09:55:37;;;;;;;;;;;;;;;19.56;35.20;100860.75;5076954;28;1281;-56
2022/03/08 09:58:04;;;;;;;;;;;;;;;19.35;35.57;100862.91;5079791;28;1589;-57
2022/03/08 10:00:31;;;;;;;;;;;;;;;18.68;36.70;100872.50;5076584;28;1266;-53
2022/03/08 10:02:56;;;;;;;;;;;;;;;18.23;37.63;100866.13;5076207;28;1455;-56
2022/03/08 10:05:23;;;;;;;;;;;;;;;17.84;38.00;100875.88;5075207;28;1433;-57
2022/03/08 10:08:10;;;;;;;;;;;;;;;17.55;38.66;100870.19;5074139;28;1347;-56
2022/03/08 10:10:58;;;;;;;;;;;;;;;17.47;38.29;100874.31;5077022;28;1383;-56
2022/03/08 10:13:26;;;;;;;;;;;;;;;17.24;39.21;100864.72;5076489;28;1906;-57
2022/03/08 10:16:04;;;;;;;;;;;;;;;17.66;39.32;100863.56;5081924;28;1310;-57
2022/03/08 10:18:46;;;;;;;;;;;;;;;18.60;37.41;100862.09;5075329;28;917;-57
2022/03/08 10:21:24;;;;;;;;;;;;;;;18.22;38.25;100867.25;5080702;28;1282;-55
2022/03/08 10:23:49;;;;;;;;;;;;;;;17.81;38.92;100861.84;5076568;28;1220;-56
2022/03/08 10:26:15;;;;;;;;;;;;;;;17.50;39.32;100856.44;5074085;28;1377;-57
2022/03/08 10:28:44;;;;;;;;;;;;;;;17.24;39.71;100861.97;5075493;28;1143;-56
2022/03/08 10:31:13;;;;;;;;;;;;;;;17.13;40.33;100854.84;5077617;28;1209;-56
2022/03/08 10:33:38;;;;;;;;;;;;;;;17.98;38.88;100869.81;5077769;28;1905;-56
2022/03/08 10:36:04;;;;;;;;;;;;;;;18.69;37.31;100848.53;5079508;28;1408;-55
2022/03/08 10:38:30;;;;;;;;;;;;;;;18.19;38.46;100848.53;5073874;28;1491;-55
2022/03/08 10:40:55;;;;;;;;;;;;;;;17.69;39.53;100860.25;5077565;28;1099;-54
2022/03/08 10:43:22;;;;;;;;;;;;;;;17.55;39.51;100846.25;5077623;28;1249;-57
2022/03/08 10:45:48;;;;;;;;;;;;;;;17.44;39.70;100848.19;5075276;28;1579;-56
2022/03/08 10:48:14;;;;;;;;;;;;;;;17.44;39.83;100845.44;5076018;28;875;-56
2022/03/08 10:50:40;;;;;;;;;;;;;;;17.44;39.87;100850.13;5075662;28;1411;-57
2022/03/08 10:53:06;;;;;;;;;;;;;;;17.55;39.68;100850.94;5075408;28;1879;-58
2022/03/08 10:55:33;;;;;;;;;;;;;;;17.58;39.63;100842.13;5076237;28;1387;-58
2022/03/08 10:58:03;;;;;;;;;;;;;;;17.75;39.13;100845.41;5075699;28;1045;-59
2022/03/08 11:00:41;;;;;;;;;;;;;;;17.66;39.57;100852.56;5075863;28;1206;-58
2022/03/08 11:03:11;;;;;;;;;;;;;;;17.56;39.61;100852.59;5074609;28;735;-58
2022/03/08 11:05:39;;;;;;;;;;;;;;;17.74;39.25;100856.66;5076161;28;829;-58
2022/03/08 11:08:05;;;;;;;;;;;;;;;17.66;39.38;100854.50;5075967;28;770;-58
2022/03/08 11:10:31;;;;;;;;;;;;;;;17.69;39.08;100849.25;5075946;28;929;-57
2022/03/08 11:12:56;;;;;;;;;;;;;;;17.57;39.29;100848.72;5075936;28;1967;-56
2022/03/08 11:15:22;;;;;;;;;;;;;;;17.72;39.06;100851.44;5075077;28;1333;-55
2022/03/08 11:17:48;;;;;;;;;;;;;;;18.04;38.16;100847.50;5075153;28;1277;-57
2022/03/08 11:20:15;;;;;;;;;;;;;;;18.20;38.21;100853.78;5076286;28;781;-55
2022/03/08 11:22:40;;;;;;;;;;;;;;;18.43;37.78;100843.19;5075900;28;825;-56
2022/03/08 11:25:06;;;;;;;;;;;;;;;18.51;37.27;100852.75;5076534;28;773;-55
2022/03/08 11:27:32;;;;;;;;;;;;;;;18.58;37.37;100861.53;5076125;28;845;-59
2022/03/08 11:29:57;;;;;;;;;;;;;;;18.78;36.81;100857.84;5072817;28;1059;-58
2022/03/08 11:32:33;;;;;;;;;;;;;;;18.76;36.85;100852.63;5075563;28;1901;-59
2022/03/08 11:35:01;;;;;;;;;;;;;;;18.44;37.15;100858.59;5075969;28;782;-59
2022/03/08 11:37:27;;;;;;;;;;;;;;;17.88;38.43;100843.97;5076029;28;860;-62
2022/03/08 11:40:05;;;;;;;;;;;;;;;17.63;38.96;100853.13;5108557;28;848;-61
2022/03/08 11:42:32;;;;;;;;;;;;;;;17.27;39.16;100854.00;5076083;28;776;-61
2022/03/08 11:45:01;;;;;;;;;;;;;;;17.18;39.94;100852.06;5075381;28;891;-60
2022/03/08 11:47:39;;;;;;;;;;;;;;;17.60;39.14;100854.50;5075787;28;1010;-59
2022/03/08 11:50:16;;;;;;;;;;;;;;;18.97;36.36;100853.31;5068998;28;841;-60
2022/03/08 11:52:42;;;;;;;;;;;;;;;18.99;35.93;100855.78;5070683;28;1905;-59
2022/03/08 11:55:09;;;;;;;;;;;;;;;18.30;37.50;100858.41;5075538;28;789;-61
2022/03/08 11:57:43;;;;;;;;;;;;;;;17.62;38.84;100852.28;5075367;28;896;-61
2022/03/08 12:00:15;;;;;;;;;;;;;;;17.30;39.36;100858.13;5075788;28;829;-61
2022/03/08 12:02:44;;;;;;;;;;;;;;;17.08;39.06;100851.00;5073899;28;963;-60
2022/03/08 12:05:29;;;;;;;;;;;;;;;17.01;40.56;100853.19;5075601;28;976;-60
2022/03/08 12:07:55;;;;;;;;;;;;;;;18.51;37.09;100850.00;5075577;28;1622;-60
2022/03/08 12:10:25;;;;;;;;;;;;;;;18.57;37.09;100848.88;5109342;28;927;-61
2022/03/08 12:12:52;;;;;;;;;;;;;;;17.85;38.54;100846.44;5077908;28;1978;-62
2022/03/08 12:15:18;;;;;;;;;;;;;;;17.55;39.09;100851.75;5079048;28;997;-61
2022/03/08 12:18:10;;;;;;;;;;;;;;;17.05;39.88;100835.03;5078648;28;1017;-63
2022/03/08 12:20:35;;;;;;;;;;;;;;;17.07;40.43;100835.59;5072010;28;1205;-60
2022/03/08 12:23:08;;;;;;;;;;;;;;;18.10;37.98;100835.38;5077886;28;879;-61
2022/03/08 12:25:33;;;;;;;;;;;;;;;19.59;35.21;100833.41;5079184;28;742;-61
2022/03/08 12:27:59;;;;;;;;;;;;;;;19.06;35.77;100839.72;5079058;28;873;-59
2022/03/08 12:30:37;;;;;;;;;;;;;;;18.26;37.36;100836.13;5078680;28;908;-59
2022/03/08 12:33:02;;;;;;;;;;;;;;;17.67;38.54;100843.22;5079156;28;1922;-63
2022/03/08 12:35:28;;;;;;;;;;;;;;;17.92;38.24;100844.25;5078782;28;816;-63
2022/03/08 12:37:58;;;;;;;;;;;;;;;18.27;37.68;100837.78;5078632;28;1037;-64
2022/03/08 12:40:28;;;;;;;;;;;;;;;17.88;38.37;100834.88;5078984;28;816;-61
2022/03/08 12:42:53;;;;;;;;;;;;;;;17.47;39.19;100835.00;5079039;28;793;-63
2022/03/08 12:45:18;;;;;;;;;;;;;;;17.24;39.15;100831.75;5078777;28;819;-63
2022/03/08 12:48:04;;;;;;;;;;;;;;;17.07;39.39;100832.03;5078438;28;954;-60